Time;durP1;ratioP1;P1;durP2;ratioP2;P2;SDS_P1;SDS_P2;PMS_P1;PMS_P2;Temp;Humidity;BMP_temperature;BMP_pressure;BME280_temperature;BME280_humidity;BME280_pressure;Samples;Min_cycle;Max_cycle;Signal;HPM_P1;HPM_P2
2021/06/20 00:00:36;;;;;;;8.48;2.60;;;15.30;99.90;;;;;;5039951;28;20103;-61
2021/06/20 00:03:03;;;;;;;7.95;2.70;;;15.40;99.90;;;;;;5039763;28;20025;-61
2021/06/20 00:05:42;;;;;;;6.05;2.80;;;15.30;99.90;;;;;;5039533;28;20110;-61
2021/06/20 00:08:08;;;;;;;4.57;2.60;;;15.40;99.90;;;;;;5039997;28;20026;-61
2021/06/20 00:10:37;;;;;;;5.20;2.25;;;15.50;99.90;;;;;;5039741;28;20032;-61
2021/06/20 00:13:04;;;;;;;7.80;2.50;;;15.20;99.90;;;;;;5039678;28;20026;-62
2021/06/20 00:15:31;;;;;;;3.53;2.30;;;15.40;99.90;;;;;;5039524;28;20029;-61
2021/06/20 00:17:58;;;;;;;7.72;2.65;;;15.30;99.90;;;;;;5039746;28;20033;-61
2021/06/20 00:20:28;;;;;;;4.63;1.98;;;15.30;99.90;;;;;;5039201;28;20077;-61
2021/06/20 00:22:54;;;;;;;6.40;2.75;;;15.10;99.90;;;;;;5039392;28;20029;-61
2021/06/20 00:25:23;;;;;;;7.72;1.98;;;15.20;99.90;;;;;;5039348;28;20363;-62
2021/06/20 00:27:49;;;;;;;4.15;1.95;;;15.20;99.90;;;;;;5039272;28;20400;-62
2021/06/20 00:30:18;;;;;;;5.35;2.05;;;15.10;99.90;;;;;;5039093;28;20038;-61
2021/06/20 00:32:45;;;;;;;2.03;1.80;;;15.00;99.90;;;;;;5039403;28;20025;-62
2021/06/20 00:35:12;;;;;;;3.33;1.85;;;15.00;99.90;;;;;;5039277;28;20508;-61
2021/06/20 00:37:38;;;;;;;8.00;3.22;;;14.90;99.90;;;;;;5039277;28;20018;-62
2021/06/20 00:40:05;;;;;;;5.25;2.22;;;15.00;99.90;;;;;;5039066;28;20021;-61
2021/06/20 00:42:32;;;;;;;1.98;1.75;;;15.10;99.90;;;;;;5039254;28;20028;-61
2021/06/20 00:44:58;;;;;;;3.13;2.00;;;14.90;99.90;;;;;;5039006;28;20024;-61
2021/06/20 00:47:24;;;;;;;6.68;2.45;;;14.90;99.90;;;;;;5038935;28;20021;-62
2021/06/20 00:49:50;;;;;;;2.25;1.73;;;14.90;99.90;;;;;;5038890;28;20026;-61
2021/06/20 00:52:18;;;;;;;6.57;2.90;;;14.80;99.90;;;;;;5039073;28;20073;-61
2021/06/20 00:54:47;;;;;;;4.97;2.40;;;14.80;99.90;;;;;;5038752;28;20033;-61
2021/06/20 00:57:21;;;;;;;4.32;2.60;;;14.70;99.90;;;;;;5038610;28;20040;-62
2021/06/20 00:59:50;;;;;;;2.35;1.90;;;14.70;99.90;;;;;;5038522;28;20030;-61
2021/06/20 01:02:18;;;;;;;5.45;2.95;;;14.60;99.90;;;;;;5037507;28;20028;-61
2021/06/20 01:04:47;;;;;;;3.28;2.55;;;14.70;99.90;;;;;;5038675;28;20022;-61
2021/06/20 01:07:17;;;;;;;3.85;1.88;;;14.60;99.90;;;;;;5038778;28;20041;-62
2021/06/20 01:09:43;;;;;;;4.70;1.98;;;14.70;99.90;;;;;;5038639;28;20035;-62
2021/06/20 01:12:09;;;;;;;2.78;2.22;;;14.60;99.90;;;;;;5038556;28;20433;-61
2021/06/20 01:14:36;;;;;;;2.50;2.30;;;14.60;99.90;;;;;;5038684;28;20481;-61
2021/06/20 01:17:04;;;;;;;4.18;2.08;;;14.60;99.90;;;;;;5038310;28;20025;-61
2021/06/20 01:19:30;;;;;;;2.30;2.03;;;14.40;99.90;;;;;;5038284;28;20108;-61
2021/06/20 01:21:57;;;;;;;4.47;2.63;;;14.70;99.90;;;;;;5038284;28;20538;-61
2021/06/20 01:24:23;;;;;;;8.77;2.50;;;14.40;99.90;;;;;;5038618;28;20032;-61
2021/06/20 01:26:49;;;;;;;2.47;1.98;;;14.50;99.90;;;;;;5038105;28;20021;-62
2021/06/20 01:29:17;;;;;;;3.13;2.25;;;14.40;99.90;;;;;;5038278;28;20020;-62
2021/06/20 01:31:49;;;;;;;6.80;2.75;;;14.60;99.90;;;;;;5037879;28;20060;-61
2021/06/20 01:34:16;;;;;;;3.35;2.28;;;14.40;99.90;;;;;;5038067;28;20033;-61
2021/06/20 01:36:43;;;;;;;5.05;2.20;;;14.50;99.90;;;;;;5038009;28;20068;-61
2021/06/20 01:39:11;;;;;;;6.72;3.17;;;14.00;99.90;;;;;;5038226;28;20022;-61
2021/06/20 01:41:37;;;;;;;3.90;2.38;;;14.30;99.90;;;;;;5038227;28;20034;-62
2021/06/20 01:44:04;;;;;;;4.68;2.25;;;14.20;99.90;;;;;;5037943;28;21160;-61
2021/06/20 01:46:30;;;;;;;6.70;2.30;;;14.20;99.90;;;;;;5037918;28;20024;-61
2021/06/20 01:48:56;;;;;;;9.20;2.67;;;14.30;99.90;;;;;;5037914;28;20026;-61
2021/06/20 01:51:22;;;;;;;3.85;2.40;;;14.30;99.90;;;;;;5037487;28;20036;-61
2021/06/20 01:53:48;;;;;;;4.43;3.17;;;14.60;99.90;;;;;;5037847;28;20021;-61
2021/06/20 01:56:13;;;;;;;4.80;2.90;;;14.50;99.90;;;;;;5037607;28;20440;-61
2021/06/20 01:58:39;;;;;;;7.07;3.33;;;14.50;99.90;;;;;;5037614;28;20021;-61
2021/06/20 02:01:05;;;;;;;3.97;3.13;;;14.60;99.90;;;;;;5037740;28;20028;-61
2021/06/20 02:03:31;;;;;;;8.95;2.90;;;14.50;99.90;;;;;;5037780;28;20025;-61
2021/06/20 02:05:59;;;;;;;6.60;3.75;;;14.80;99.90;;;;;;5037124;28;20029;-61
2021/06/20 02:08:25;;;;;;;5.47;3.50;;;14.90;99.90;;;;;;5037586;28;20412;-61
2021/06/20 02:10:53;;;;;;;10.05;3.70;;;14.60;99.90;;;;;;5037491;28;20026;-62
2021/06/20 02:13:23;;;;;;;6.45;3.17;;;14.70;99.90;;;;;;5036945;28;20490;-62
2021/06/20 02:15:52;;;;;;;5.03;3.92;;;14.70;99.90;;;;;;5037006;28;20025;-62
2021/06/20 02:18:18;;;;;;;7.95;3.50;;;14.70;99.90;;;;;;5037532;28;20029;-61
2021/06/20 02:20:45;;;;;;;6.97;3.60;;;14.70;99.90;;;;;;5036980;28;20029;-62
2021/06/20 02:23:11;;;;;;;9.88;4.05;;;14.80;99.90;;;;;;5037211;28;20025;-61
2021/06/20 02:25:37;;;;;;;7.25;4.30;;;14.60;99.90;;;;;;5037348;28;20029;-62
2021/06/20 02:28:03;;;;;;;7.80;4.05;;;14.90;99.90;;;;;;5037067;28;20033;-61
2021/06/20 02:30:29;;;;;;;12.35;4.30;;;14.80;99.90;;;;;;5037003;28;20049;-61
2021/06/20 02:32:55;;;;;;;11.02;4.60;;;14.70;99.90;;;;;;5037140;28;20033;-61
2021/06/20 02:35:23;;;;;;;14.05;4.10;;;14.80;99.90;;;;;;5037023;28;20026;-61
2021/06/20 02:37:50;;;;;;;7.57;3.60;;;14.70;99.90;;;;;;5036919;28;20165;-61
2021/06/20 02:40:17;;;;;;;10.07;3.45;;;14.60;99.90;;;;;;5035804;28;20021;-61
2021/06/20 02:42:44;;;;;;;5.25;3.10;;;14.60;99.90;;;;;;5037088;28;20040;-62
2021/06/20 02:45:13;;;;;;;8.90;2.88;;;14.70;99.90;;;;;;5036595;28;20045;-61
2021/06/20 02:47:39;;;;;;;3.00;2.80;;;14.50;99.90;;;;;;5037034;28;20029;-62
2021/06/20 02:50:06;;;;;;;6.38;3.13;;;14.50;99.90;;;;;;5036796;28;20044;-61
2021/06/20 02:52:32;;;;;;;3.80;2.90;;;14.70;99.90;;;;;;5036731;28;20036;-61
2021/06/20 02:55:00;;;;;;;6.10;2.70;;;14.60;99.90;;;;;;5037102;28;20026;-61
2021/06/20 02:57:27;;;;;;;9.48;3.30;;;14.60;99.90;;;;;;5036770;28;20034;-61
2021/06/20 02:59:54;;;;;;;4.05;2.97;;;14.70;99.90;;;;;;5036602;28;20014;-61
2021/06/20 03:02:20;;;;;;;6.38;3.33;;;14.80;99.90;;;;;;5036720;28;20083;-61
2021/06/20 03:04:47;;;;;;;4.88;2.97;;;14.70;99.90;;;;;;5036509;28;20021;-62
2021/06/20 03:07:13;;;;;;;3.80;3.00;;;14.60;99.90;;;;;;5036569;28;20026;-62
2021/06/20 03:09:40;;;;;;;6.80;3.42;;;14.60;99.90;;;;;;5036767;28;20555;-61
2021/06/20 03:12:08;;;;;;;11.80;3.85;;;14.70;99.90;;;;;;5036583;28;20025;-61
2021/06/20 03:14:35;;;;;;;6.15;2.95;;;14.50;99.90;;;;;;5036700;28;20068;-61
2021/06/20 03:17:03;;;;;;;8.63;4.63;;;14.70;99.90;;;;;;5036811;28;20453;-61
2021/06/20 03:19:30;;;;;;;6.82;3.40;;;14.50;99.90;;;;;;5036377;28;20018;-61
2021/06/20 03:22:02;;;;;;;7.75;3.70;;;14.50;99.90;;;;;;5036695;28;20037;-62
2021/06/20 03:24:33;;;;;;;3.03;2.47;;;14.50;99.90;;;;;;5036375;28;20163;-61
2021/06/20 03:27:00;;;;;;;5.85;3.53;;;14.60;99.90;;;;;;5040295;28;20540;-62
2021/06/20 03:29:26;;;;;;;6.40;3.22;;;14.50;99.90;;;;;;5040194;28;20489;-62
2021/06/20 03:31:53;;;;;;;3.78;2.92;;;14.50;99.90;;;;;;5040290;28;20056;-62
2021/06/20 03:34:19;;;;;;;5.25;2.30;;;14.60;99.90;;;;;;5040176;28;20053;-62
2021/06/20 03:36:45;;;;;;;4.03;2.97;;;14.60;99.90;;;;;;5040503;28;20080;-61
2021/06/20 03:39:12;;;;;;;8.75;3.63;;;14.60;99.90;;;;;;5040305;28;20026;-61
2021/06/20 03:41:38;;;;;;;6.28;2.95;;;14.50;99.90;;;;;;5040396;28;20026;-61
2021/06/20 03:44:06;;;;;;;5.18;2.72;;;14.60;99.90;;;;;;5040190;28;20013;-61
2021/06/20 03:46:36;;;;;;;7.85;4.32;;;14.50;99.90;;;;;;5039925;28;20405;-62
2021/06/20 03:49:03;;;;;;;7.72;3.03;;;14.60;99.90;;;;;;5040178;28;20051;-61
2021/06/20 03:51:29;;;;;;;3.38;2.45;;;14.40;99.90;;;;;;5039842;28;20021;-62
2021/06/20 03:53:54;;;;;;;2.97;2.13;;;14.50;99.90;;;;;;5040096;28;20017;-61
2021/06/20 03:56:20;;;;;;;7.22;3.35;;;14.40;99.90;;;;;;5039837;28;20101;-61
2021/06/20 03:58:46;;;;;;;9.20;4.28;;;14.40;99.90;;;;;;5040073;28;20028;-61
2021/06/20 04:01:12;;;;;;;7.00;3.08;;;14.40;99.90;;;;;;5040039;28;20025;-61
2021/06/20 04:03:38;;;;;;;4.47;2.95;;;14.50;99.90;;;;;;5040203;28;20029;-62
2021/06/20 04:06:04;;;;;;;7.47;3.28;;;14.40;99.90;;;;;;5039445;28;20029;-61
2021/06/20 04:08:30;;;;;;;6.40;3.53;;;14.40;99.90;;;;;;5039873;28;20029;-61
2021/06/20 04:10:56;;;;;;;12.20;3.80;;;14.40;99.90;;;;;;5039604;28;20032;-61
2021/06/20 04:13:22;;;;;;;12.50;4.25;;;14.30;99.90;;;;;;5039652;28;20040;-62
2021/06/20 04:15:47;;;;;;;8.77;3.67;;;14.30;99.90;;;;;;5039499;28;20033;-61
2021/06/20 04:18:13;;;;;;;6.75;3.95;;;14.30;99.90;;;;;;5039643;28;20511;-62
2021/06/20 04:20:39;;;;;;;6.32;3.35;;;14.40;99.90;;;;;;5039391;28;20105;-61
2021/06/20 04:23:05;;;;;;;6.35;3.58;;;14.40;99.90;;;;;;5039819;28;20018;-62
2021/06/20 04:25:31;;;;;;;4.57;2.80;;;14.40;99.90;;;;;;5039286;28;20498;-61
2021/06/20 04:27:57;;;;;;;7.03;2.97;;;14.60;99.90;;;;;;5039516;28;20044;-62
2021/06/20 04:30:24;;;;;;;6.32;2.83;;;14.40;99.90;;;;;;5039074;28;20068;-61
2021/06/20 04:32:52;;;;;;;5.72;2.70;;;14.60;99.90;;;;;;5038349;28;20076;-61
2021/06/20 04:35:19;;;;;;;4.07;2.78;;;14.40;99.90;;;;;;5039272;28;20025;-62
2021/06/20 04:37:46;;;;;;;8.82;3.50;;;14.60;99.90;;;;;;5039082;28;20024;-62
2021/06/20 04:40:15;;;;;;;6.38;2.78;;;14.80;99.90;;;;;;5039136;28;20404;-61
2021/06/20 04:42:42;;;;;;;6.47;2.47;;;14.60;99.90;;;;;;5039296;28;20025;-62
2021/06/20 04:45:10;;;;;;;4.50;3.20;;;14.60;99.90;;;;;;5039090;28;20047;-61
2021/06/20 04:47:36;;;;;;;8.52;3.17;;;14.70;99.90;;;;;;5039299;28;20029;-62
2021/06/20 04:50:03;;;;;;;9.57;3.05;;;;;;;;;;5038674;28;20034;-62
2021/06/20 04:52:29;;;;;;;3.63;2.55;;;16.10;99.90;;;;;;5039045;28;20026;-61
2021/06/20 04:54:56;;;;;;;14.25;4.10;;;14.90;99.90;;;;;;5038790;28;20499;-61
2021/06/20 04:57:27;;;;;;;6.25;3.10;;;15.10;99.90;;;;;;5038887;28;20080;-62
2021/06/20 04:59:57;;;;;;;5.28;2.97;;;14.80;99.90;;;;;;5038632;28;20029;-62
2021/06/20 05:02:23;;;;;;;6.55;3.42;;;15.10;99.90;;;;;;5038822;28;20093;-62
2021/06/20 05:04:50;;;;;;;6.38;2.85;;;15.00;99.90;;;;;;5038703;28;20060;-62
2021/06/20 05:07:16;;;;;;;5.03;3.20;;;15.20;99.90;;;;;;5037249;28;20095;-62
2021/06/20 05:09:42;;;;;;;10.00;3.78;;;15.20;99.90;;;;;;5038963;28;20060;-62
2021/06/20 05:12:09;;;;;;;7.50;3.33;;;15.30;99.90;;;;;;5038401;28;20113;-61
2021/06/20 05:14:36;;;;;;;5.32;2.80;;;;;;;;;;5038678;28;20482;-61
2021/06/20 05:17:02;;;;;;;7.75;4.05;;;;;;;;;;5038209;28;20485;-62
2021/06/20 05:19:28;;;;;;;7.25;3.05;;;15.60;99.90;;;;;;5038474;28;20021;-61
2021/06/20 05:21:55;;;;;;;7.57;3.28;;;15.50;99.90;;;;;;5038379;28;20022;-61
2021/06/20 05:24:22;;;;;;;4.38;2.90;;;15.60;99.90;;;;;;5038637;28;20021;-62
2021/06/20 05:26:48;;;;;;;11.32;3.42;;;15.60;99.90;;;;;;5038149;28;20045;-61
2021/06/20 05:29:14;;;;;;;8.80;3.53;;;15.80;99.90;;;;;;5038414;28;20367;-61
2021/06/20 05:31:39;;;;;;;9.68;4.15;;;15.80;99.90;;;;;;5037971;28;20594;-62
2021/06/20 05:34:05;;;;;;;8.15;2.53;;;15.90;99.90;;;;;;5038382;28;20109;-61
2021/06/20 05:36:31;;;;;;;8.73;3.03;;;15.90;99.90;;;;;;5038112;28;20018;-61
2021/06/20 05:38:57;;;;;;;6.03;3.10;;;16.00;99.90;;;;;;5038155;28;20033;-62
2021/06/20 05:41:24;;;;;;;7.35;3.35;;;16.00;99.90;;;;;;5038048;28;20044;-62
2021/06/20 05:43:50;;;;;;;6.40;2.90;;;16.10;99.90;;;;;;5037824;28;20029;-62
2021/06/20 05:46:18;;;;;;;10.45;3.47;;;16.20;99.90;;;;;;5037762;28;20056;-62
2021/06/20 05:48:45;;;;;;;6.32;3.10;;;16.30;99.90;;;;;;5037234;28;20034;-62
2021/06/20 05:51:10;;;;;;;12.40;3.70;;;16.30;99.90;;;;;;5037649;28;20021;-61
2021/06/20 05:53:36;;;;;;;8.07;2.95;;;16.30;99.90;;;;;;5038013;28;20891;-62
2021/06/20 05:56:03;;;;;;;7.45;3.00;;;16.40;99.90;;;;;;5037545;28;20032;-62
2021/06/20 05:58:28;;;;;;;4.45;2.38;;;16.70;99.90;;;;;;5037878;28;20057;-61
2021/06/20 06:00:54;;;;;;;4.43;3.05;;;16.60;99.90;;;;;;5037646;28;20024;-62
2021/06/20 06:03:20;;;;;;;6.63;2.45;;;16.60;99.90;;;;;;5037672;28;20033;-62
2021/06/20 06:05:46;;;;;;;11.10;3.22;;;16.50;99.90;;;;;;5037342;28;20021;-62
2021/06/20 06:08:12;;;;;;;4.10;2.72;;;16.50;99.90;;;;;;5037610;28;20025;-61
2021/06/20 06:10:38;;;;;;;8.27;2.80;;;16.60;99.90;;;;;;5037524;28;20059;-61
2021/06/20 06:13:04;;;;;;;4.20;2.70;;;16.40;99.90;;;;;;5037367;28;20024;-62
2021/06/20 06:15:31;;;;;;;6.57;2.95;;;16.50;99.90;;;;;;5037312;28;20047;-61
2021/06/20 06:17:57;;;;;;;5.68;2.58;;;16.50;99.90;;;;;;5037308;28;20029;-62
2021/06/20 06:20:23;;;;;;;7.60;2.47;;;16.60;99.90;;;;;;5036904;28;20036;-62
2021/06/20 06:22:50;;;;;;;4.60;2.50;;;16.50;99.90;;;;;;5032185;28;20409;-61
2021/06/20 06:25:16;;;;;;;5.68;2.85;;;16.50;99.90;;;;;;5036868;28;20022;-62
2021/06/20 06:27:42;;;;;;;3.97;2.67;;;16.50;99.90;;;;;;5036960;28;20053;-61
2021/06/20 06:30:09;;;;;;;5.90;2.20;;;16.70;99.90;;;;;;5036326;28;20060;-61
2021/06/20 06:32:36;;;;;;;4.70;2.53;;;16.70;99.90;;;;;;5037193;28;20061;-62
2021/06/20 06:35:02;;;;;;;8.73;2.72;;;17.10;99.90;;;;;;5037071;28;20033;-62
2021/06/20 06:37:28;;;;;;;7.85;2.30;;;17.10;99.90;;;;;;5036313;28;20033;-64
2021/06/20 06:39:54;;;;;;;10.57;3.03;;;17.00;99.90;;;;;;5036772;28;20033;-62
2021/06/20 06:42:25;;;;;;;5.93;2.83;;;17.20;99.90;;;;;;5035800;28;20105;-62
2021/06/20 06:44:52;;;;;;;8.45;3.00;;;17.20;99.90;;;;;;5036467;28;20025;-63
2021/06/20 06:47:18;;;;;;;7.35;2.42;;;17.30;99.90;;;;;;5036943;28;20470;-62
2021/06/20 06:49:44;;;;;;;7.78;3.35;;;17.50;99.90;;;;;;5036498;28;20433;-62
2021/06/20 06:52:10;;;;;;;2.78;2.00;;;17.80;99.90;;;;;;5036988;28;20036;-63
2021/06/20 06:54:37;;;;;;;7.95;2.70;;;;;;;;;;5037226;28;20028;-62
2021/06/20 06:57:03;;;;;;;3.50;2.15;;;17.80;99.90;;;;;;5036888;28;20444;-62
2021/06/20 06:59:30;;;;;;;8.32;2.83;;;17.80;99.90;;;;;;5036657;28;20096;-62
2021/06/20 07:01:56;;;;;;;6.72;2.72;;;;;;;;;;5036653;28;20525;-63
2021/06/20 07:04:22;;;;;;;3.60;2.03;;;18.30;99.90;;;;;;5036425;28;20022;-63
2021/06/20 07:06:48;;;;;;;7.20;2.13;;;18.30;99.90;;;;;;5036556;28;20382;-63
2021/06/20 07:09:15;;;;;;;4.78;1.90;;;18.30;99.90;;;;;;5036619;28;20030;-63
2021/06/20 07:11:41;;;;;;;4.35;2.22;;;18.40;99.90;;;;;;5036599;28;20454;-62
2021/06/20 07:14:07;;;;;;;4.28;2.03;;;18.30;99.90;;;;;;5036711;28;20029;-63
2021/06/20 07:16:33;;;;;;;5.57;2.28;;;18.40;99.90;;;;;;5036432;28;20477;-62
2021/06/20 07:18:59;;;;;;;5.10;2.35;;;18.30;99.90;;;;;;5036418;28;20025;-62
2021/06/20 07:21:25;;;;;;;8.32;2.15;;;18.50;99.90;;;;;;5036386;28;20044;-63
2021/06/20 07:23:51;;;;;;;6.45;1.92;;;18.60;99.90;;;;;;5036527;28;20434;-63
2021/06/20 07:26:17;;;;;;;5.97;2.25;;;18.90;99.90;;;;;;5036448;28;20029;-63
2021/06/20 07:28:43;;;;;;;15.88;2.30;;;19.00;99.90;;;;;;5036373;28;20033;-64
2021/06/20 07:31:09;;;;;;;6.97;2.30;;;19.30;99.90;;;;;;5036490;28;20057;-62
2021/06/20 07:33:35;;;;;;;6.18;1.70;;;19.50;99.90;;;;;;5036705;28;20041;-63
2021/06/20 07:36:01;;;;;;;2.42;1.40;;;19.60;99.90;;;;;;5036515;28;20033;-62
2021/06/20 07:38:27;;;;;;;5.20;2.20;;;19.80;99.90;;;;;;5036298;28;20025;-62
2021/06/20 07:40:53;;;;;;;6.35;2.63;;;20.10;99.90;;;;;;5036389;28;20021;-63
2021/06/20 07:43:22;;;;;;;4.38;1.90;;;20.20;99.90;;;;;;5036123;28;20398;-63
2021/06/20 07:45:49;;;;;;;2.55;1.70;;;20.10;99.90;;;;;;5036398;28;20028;-63
2021/06/20 07:48:15;;;;;;;5.53;1.98;;;19.90;99.90;;;;;;5036140;28;20555;-64
2021/06/20 07:50:41;;;;;;;5.32;1.73;;;19.60;99.90;;;;;;5036252;28;20025;-63
2021/06/20 07:53:07;;;;;;;6.95;2.15;;;19.40;99.90;;;;;;5036433;28;20030;-63
2021/06/20 07:55:33;;;;;;;9.88;2.38;;;19.50;99.90;;;;;;5036341;28;20024;-63
2021/06/20 07:57:59;;;;;;;10.82;2.88;;;19.30;99.90;;;;;;5035573;28;20034;-63
2021/06/20 08:00:24;;;;;;;7.15;2.47;;;19.30;99.90;;;;;;5036078;28;21172;-63
2021/06/20 08:02:50;;;;;;;6.57;1.90;;;19.30;99.90;;;;;;5035881;28;20017;-63
2021/06/20 08:05:16;;;;;;;8.13;2.10;;;19.20;99.90;;;;;;5035655;28;20101;-62
2021/06/20 08:07:42;;;;;;;6.80;1.77;;;19.40;99.90;;;;;;5035850;28;20033;-63
2021/06/20 08:10:09;;;;;;;8.85;2.35;;;19.40;99.90;;;;;;5036379;28;20061;-63
2021/06/20 08:12:35;;;;;;;8.43;2.20;;;19.30;99.90;;;;;;5038817;28;20049;-63
2021/06/20 08:15:01;;;;;;;6.63;1.92;;;19.30;99.90;;;;;;5039642;28;20079;-63
2021/06/20 08:17:28;;;;;;;4.57;1.77;;;19.20;99.90;;;;;;5039245;28;20032;-63
2021/06/20 08:19:54;;;;;;;10.23;1.88;;;19.20;99.90;;;;;;5039262;28;20036;-62
2021/06/20 08:22:20;;;;;;;5.43;2.70;;;19.00;99.90;;;;;;5039387;28;20101;-62
2021/06/20 08:24:46;;;;;;;7.13;2.08;;;18.90;99.90;;;;;;5039627;28;20512;-63
2021/06/20 08:27:13;;;;;;;4.95;2.00;;;18.90;99.90;;;;;;5039105;28;20026;-63
2021/06/20 08:29:39;;;;;;;4.82;1.92;;;19.00;99.90;;;;;;5039182;28;20033;-63
2021/06/20 08:32:06;;;;;;;5.43;1.92;;;18.90;99.90;;;;;;5039747;28;20091;-63
2021/06/20 08:34:33;;;;;;;4.00;1.98;;;19.00;99.90;;;;;;5038979;28;20025;-63
2021/06/20 08:37:00;;;;;;;4.68;1.75;;;19.10;99.90;;;;;;5039333;28;20029;-63
2021/06/20 08:39:26;;;;;;;3.70;1.60;;;19.00;99.90;;;;;;5039131;28;20052;-63
2021/06/20 08:41:53;;;;;;;3.55;1.67;;;19.10;99.90;;;;;;5038723;28;20029;-63
2021/06/20 08:44:24;;;;;;;5.15;1.60;;;19.20;99.90;;;;;;5037680;28;20048;-63
2021/06/20 08:46:50;;;;;;;5.75;1.38;;;19.20;99.90;;;;;;5038868;28;20409;-63
2021/06/20 08:49:16;;;;;;;4.70;1.58;;;19.10;99.90;;;;;;5038811;28;20378;-63
2021/06/20 08:51:46;;;;;;;4.38;1.75;;;19.20;99.90;;;;;;5038764;28;20060;-62
2021/06/20 08:54:12;;;;;;;9.25;2.55;;;19.20;99.90;;;;;;5038877;28;20025;-62
2021/06/20 08:56:38;;;;;;;7.50;2.10;;;19.10;99.90;;;;;;5039084;28;20033;-63
2021/06/20 08:59:05;;;;;;;7.50;2.25;;;19.10;99.90;;;;;;5038843;28;20104;-63
2021/06/20 09:01:33;;;;;;;5.50;2.42;;;19.20;99.90;;;;;;5038961;28;20032;-63
2021/06/20 09:04:00;;;;;;;3.78;2.17;;;19.30;99.90;;;;;;5038295;28;20499;-63
2021/06/20 09:06:26;;;;;;;5.88;2.33;;;19.50;99.90;;;;;;5038783;28;20093;-63
2021/06/20 09:09:00;;;;;;;4.70;1.90;;;19.80;99.90;;;;;;5038609;28;20619;-63
2021/06/20 09:11:38;;;;;;;5.25;2.00;;;19.90;99.90;;;;;;5038500;28;20029;-63
2021/06/20 09:14:09;;;;;;;10.88;2.30;;;20.10;99.90;;;;;;5038258;28;20021;-63
2021/06/20 09:16:44;;;;;;;7.90;2.40;;;20.10;99.90;;;;;;5038578;28;20549;-63
2021/06/20 09:19:10;;;;;;;4.37;2.03;;;20.20;99.90;;;;;;5038076;28;20052;-63
2021/06/20 09:21:36;;;;;;;6.65;1.77;;;20.40;99.90;;;;;;5038769;28;20425;-63
2021/06/20 09:24:03;;;;;;;7.20;1.90;;;20.60;99.90;;;;;;5037216;28;20025;-63
2021/06/20 09:26:39;;;;;;;8.02;1.60;;;20.90;99.90;;;;;;5038797;28;20029;-63
2021/06/20 09:29:06;;;;;;;7.68;2.05;;;21.20;99.90;;;;;;5022104;28;20541;-63
2021/06/20 09:31:50;;;;;;;7.82;1.92;;;21.60;99.90;;;;;;5038366;28;20045;-63
2021/06/20 09:34:17;;;;;;;8.18;1.90;;;21.90;99.90;;;;;;5038210;28;20136;-63
2021/06/20 09:36:44;;;;;;;4.82;1.88;;;22.10;99.90;;;;;;5038400;28;20641;-63
2021/06/20 09:39:23;;;;;;;7.63;1.98;;;22.20;99.90;;;;;;5038275;28;20108;-63
2021/06/20 09:41:56;;;;;;;7.57;1.58;;;22.40;99.90;;;;;;5037810;28;20096;-63
2021/06/20 09:44:35;;;;;;;5.65;1.63;;;22.50;99.90;;;;;;5037974;28;20508;-63
2021/06/20 09:47:01;;;;;;;5.57;1.80;;;22.40;99.90;;;;;;5037986;28;20508;-63
2021/06/20 09:49:28;;;;;;;7.05;2.58;;;22.30;99.90;;;;;;5037667;28;20033;-63
2021/06/20 09:51:54;;;;;;;2.58;1.73;;;22.20;99.90;;;;;;5036631;28;20026;-63
2021/06/20 09:54:36;;;;;;;7.75;2.25;;;22.10;99.90;;;;;;5037826;28;20037;-63
2021/06/20 09:57:03;;;;;;;5.13;1.98;;;22.00;99.90;;;;;;5037499;28;20512;-63
2021/06/20 09:59:34;;;;;;;7.13;2.17;;;22.00;99.90;;;;;;5037592;28;20405;-63
2021/06/20 10:02:13;;;;;;;8.88;1.90;;;22.20;99.90;;;;;;5037843;28;20029;-63
2021/06/20 10:04:40;;;;;;;3.42;1.50;;;22.20;99.90;;;;;;5037443;28;20104;-63
2021/06/20 10:07:09;;;;;;;3.67;1.85;;;22.40;99.90;;;;;;5037778;28;20108;-63
2021/06/20 10:09:37;;;;;;;4.82;1.77;;;22.50;99.90;;;;;;5037689;28;20033;-63
2021/06/20 10:12:05;;;;;;;5.38;1.83;;;22.70;99.90;;;;;;5037339;28;20021;-63
2021/06/20 10:14:32;;;;;;;4.88;1.50;;;22.70;99.90;;;;;;5037291;28;20382;-63
2021/06/20 10:17:11;;;;;;;5.55;2.40;;;22.90;99.90;;;;;;5036983;28;20025;-63
2021/06/20 10:19:41;;;;;;;4.55;1.55;;;23.30;99.90;;;;;;5037217;28;20030;-63
2021/06/20 10:22:08;;;;;;;3.67;1.05;;;23.50;99.90;;;;;;5037393;28;20020;-64
2021/06/20 10:24:45;;;;;;;3.75;1.45;;;23.60;99.90;;;;;;5037173;28;20447;-63
2021/06/20 10:27:27;;;;;;;3.92;1.52;;;23.90;99.90;;;;;;5037019;28;20035;-63
2021/06/20 10:29:54;;;;;;;3.45;1.23;;;24.20;99.90;;;;;;5036808;28;20069;-63
2021/06/20 10:32:22;;;;;;;5.53;1.48;;;24.50;99.90;;;;;;5037039;28;20025;-63
2021/06/20 10:35:00;;;;;;;5.78;1.85;;;24.90;99.90;;;;;;5036486;28;20091;-63
2021/06/20 10:37:32;;;;;;;4.05;1.80;;;25.40;99.90;;;;;;5017170;28;20033;-63
2021/06/20 10:39:58;;;;;;;5.68;1.75;;;26.60;99.90;;;;;;5017155;28;20029;-63
2021/06/20 10:42:37;;;;;;;4.10;1.63;;;27.80;99.90;;;;;;5016993;28;20390;-63
2021/06/20 10:45:05;;;;;;;21.08;10.73;;;28.20;99.90;;;;;;5016999;28;20018;-63
2021/06/20 10:47:35;;;;;;;27.55;15.02;;;28.00;99.90;;;;;;5017071;28;20057;-63
2021/06/20 10:50:03;;;;;;;13.95;6.18;;;27.20;99.90;;;;;;5023643;28;20030;-63
2021/06/20 10:52:29;;;;;;;10.40;4.45;;;26.20;99.90;;;;;;5036662;28;20026;-63
2021/06/20 10:55:14;;;;;;;5.32;1.58;;;25.70;99.90;;;;;;5036969;28;20025;-63
2021/06/20 10:57:47;;;;;;;3.63;1.08;;;25.50;99.90;;;;;;5036563;28;20025;-63
2021/06/20 11:00:32;;;;;;;3.63;1.17;;;25.30;99.90;;;;;;5036743;28;20055;-64
2021/06/20 11:03:30;;;;;;;1.88;0.90;;;24.90;99.90;;;;;;5017095;28;20076;-63
2021/06/20 11:05:58;;;;;;;3.13;1.17;;;24.50;99.90;;;;;;5024650;28;20029;-64
2021/06/20 11:08:27;;;;;;;3.60;1.33;;;24.20;99.90;;;;;;5036736;28;20036;-63
2021/06/20 11:11:07;;;;;;;3.40;1.15;;;23.80;99.90;;;;;;5036447;28;20022;-63
2021/06/20 11:13:33;;;;;;;5.90;1.55;;;23.50;99.90;;;;;;5036504;28;20052;-64
2021/06/20 11:16:12;;;;;;;4.22;1.13;;;23.40;99.90;;;;;;5036227;28;20026;-64
2021/06/20 11:18:39;;;;;;;2.58;0.90;;;23.80;99.90;;;;;;5036761;28;20091;-63
2021/06/20 11:21:05;;;;;;;3.70;1.35;;;24.50;99.90;;;;;;5036375;28;20026;-63
2021/06/20 11:23:31;;;;;;;4.03;1.23;;;25.50;99.90;;;;;;5036454;28;20113;-63
2021/06/20 11:25:59;;;;;;;2.05;0.98;;;26.60;99.90;;;;;;5036524;28;20064;-63
2021/06/20 11:28:25;;;;;;;5.65;0.90;;;27.20;99.90;;;;;;5036307;28;20052;-63
2021/06/20 11:31:01;;;;;;;4.20;0.80;;;27.20;99.90;;;;;;5036191;28;20052;-63
2021/06/20 11:33:27;;;;;;;2.10;1.08;;;27.00;99.90;;;;;;5034910;28;20037;-63
2021/06/20 11:35:54;;;;;;;3.53;0.90;;;26.60;99.90;;;;;;5036608;28;20029;-62
2021/06/20 11:38:40;;;;;;;2.65;0.77;;;26.10;99.90;;;;;;5036194;28;20449;-61
2021/06/20 11:41:18;;;;;;;3.05;0.82;;;25.30;99.90;;;;;;5036607;28;20029;-61
2021/06/20 11:43:59;;;;;;;3.42;0.82;;;24.80;99.90;;;;;;5036081;28;20544;-64
2021/06/20 11:46:27;;;;;;;1.92;0.70;;;24.30;99.90;;;;;;5037111;28;20032;-63
2021/06/20 11:48:57;;;;;;;1.65;0.50;;;24.20;99.90;;;;;;5039885;28;20448;-63
2021/06/20 11:51:27;;;;;;;2.63;0.68;;;24.10;99.90;;;;;;5039867;28;20028;-63
2021/06/20 11:54:11;;;;;;;0.90;0.60;;;24.20;99.90;;;;;;5040200;28;20040;-63
2021/06/20 11:56:40;;;;;;;0.65;0.57;;;24.10;99.90;;;;;;5040200;28;20024;-63
2021/06/20 11:59:09;;;;;;;7.57;0.82;;;24.10;99.90;;;;;;5040084;28;20041;-64
2021/06/20 12:01:41;;;;;;;2.70;0.70;;;24.20;99.90;;;;;;5040335;28;20462;-63
2021/06/20 12:04:09;;;;;;;2.95;0.73;;;24.20;99.90;;;;;;5039566;28;20032;-64
2021/06/20 12:06:36;;;;;;;1.63;0.65;;;24.10;99.90;;;;;;5039842;28;20021;-63
2021/06/20 12:09:02;;;;;;;2.00;0.75;;;24.00;99.90;;;;;;5039642;28;20152;-63
2021/06/20 12:11:32;;;;;;;1.10;0.65;;;23.80;99.90;;;;;;5039860;28;20033;-63
2021/06/20 12:13:58;;;;;;;3.05;0.77;;;23.60;99.90;;;;;;5039378;28;20029;-64
2021/06/20 12:16:25;;;;;;;3.03;0.90;;;23.30;99.90;;;;;;5039556;28;20105;-64
2021/06/20 12:18:51;;;;;;;2.63;0.75;;;23.10;99.90;;;;;;5039242;28;20021;-63
2021/06/20 12:21:28;;;;;;;0.75;0.50;;;22.90;99.90;;;;;;5039742;28;20025;-63
2021/06/20 12:23:55;;;;;;;3.30;0.77;;;22.80;99.90;;;;;;5039439;28;20033;-63
2021/06/20 12:26:29;;;;;;;1.55;0.80;;;22.90;99.90;;;;;;5039122;28;20013;-63
2021/06/20 12:28:56;;;;;;;1.95;0.60;;;23.30;99.90;;;;;;5038946;28;21012;-63
2021/06/20 12:31:23;;;;;;;3.55;1.05;;;23.40;99.90;;;;;;5039172;28;20045;-63
2021/06/20 12:34:08;;;;;;;1.38;1.02;;;23.50;99.90;;;;;;5038878;28;20090;-63
2021/06/20 12:36:36;;;;;;;3.33;0.80;;;23.50;99.90;;;;;;5038407;28;20029;-63
2021/06/20 12:39:04;;;;;;;0.75;0.52;;;23.40;99.90;;;;;;5039286;28;20079;-63
2021/06/20 12:41:30;;;;;;;5.88;1.10;;;23.10;99.90;;;;;;5039152;28;20049;-63
2021/06/20 12:44:16;;;;;;;2.35;0.85;;;22.90;99.90;;;;;;5039111;28;20083;-63
2021/06/20 12:46:42;;;;;;;2.75;0.80;;;22.60;99.90;;;;;;5038926;28;20078;-63
2021/06/20 12:49:11;;;;;;;3.30;0.77;;;22.40;99.90;;;;;;5039082;28;20036;-63
2021/06/20 12:51:52;;;;;;;0.75;0.52;;;22.20;99.90;;;;;;5038948;28;20041;-63